createdAt,value
2018-06-23T00:01:17.034Z,99257.70
2018-06-23T00:03:45.703Z,99257.38
2018-06-23T00:06:14.573Z,99265.30
2018-06-23T00:08:43.203Z,99260.50
2018-06-23T00:11:11.768Z,99261.34
2018-06-23T00:13:40.399Z,99261.17
2018-06-23T00:16:09.086Z,99257.78
2018-06-23T00:18:37.801Z,99263.89
2018-06-23T00:21:06.413Z,99263.76
2018-06-23T00:23:35.088Z,99267.42
2018-06-23T00:26:08.920Z,99274.80
2018-06-23T00:28:37.695Z,99274.98
2018-06-23T00:31:06.875Z,99278.59
2018-06-23T00:33:35.436Z,99276.66
2018-06-23T00:36:04.066Z,99277.97
2018-06-23T00:38:32.666Z,99284.92
2018-06-23T00:41:01.390Z,99284.44
2018-06-23T00:43:30.042Z,99293.73
2018-06-23T00:45:58.861Z,99288.45
2018-06-23T00:48:27.594Z,99287.13
2018-06-23T00:50:56.277Z,99291.78
2018-06-23T00:53:24.905Z,99297.63
2018-06-23T00:55:53.598Z,99301.23
2018-06-23T00:58:22.257Z,99300.45
2018-06-23T01:00:50.832Z,99302.96
2018-06-23T01:03:19.472Z,99307.06
2018-06-23T01:05:48.119Z,99310.39
2018-06-23T01:08:16.846Z,99312.60
2018-06-23T01:10:45.562Z,99315.41
2018-06-23T01:13:14.300Z,99320.73
2018-06-23T01:15:42.953Z,99316.08
2018-06-23T01:18:11.559Z,99328.17
2018-06-23T01:20:40.392Z,99322.41
2018-06-23T01:23:09.102Z,99329.01
2018-06-23T01:25:37.733Z,99331.16
2018-06-23T01:28:06.387Z,99330.11
2018-06-23T01:30:35.019Z,99335.39
2018-06-23T01:33:03.669Z,99336.52
2018-06-23T01:35:32.418Z,99331.03
2018-06-23T01:38:01.120Z,99340.48
2018-06-23T01:40:29.698Z,99339.83
2018-06-23T01:42:58.306Z,99345.11
2018-06-23T01:45:27.116Z,99348.05
2018-06-23T01:47:55.688Z,99355.75
2018-06-23T01:50:24.287Z,99359.36
2018-06-23T01:52:52.935Z,99361.92
2018-06-23T01:55:21.563Z,99372.56
2018-06-23T01:57:50.196Z,99365.67
2018-06-23T02:00:18.767Z,99368.20
2018-06-23T02:02:47.378Z,99379.22
2018-06-23T02:05:16.018Z,99377.84
2018-06-23T02:07:44.792Z,99384.88
2018-06-23T02:10:13.402Z,99386.55
2018-06-23T02:12:42.038Z,99384.31
2018-06-23T02:15:11.563Z,99392.06
2018-06-23T02:17:45.348Z,99389.23
2018-06-23T02:20:19.227Z,99392.72
2018-06-23T02:22:52.938Z,99393.68
2018-06-23T02:25:26.569Z,99397.16
2018-06-23T02:28:00.510Z,99395.48
2018-06-23T02:30:36.169Z,99403.41
2018-06-23T02:33:09.824Z,99409.03
2018-06-23T02:35:38.421Z,99414.02
2018-06-23T02:38:07.185Z,99416.38
2018-06-23T02:40:35.820Z,99419.02
2018-06-23T02:43:04.454Z,99429.19
2018-06-23T02:45:33.171Z,99433.14
2018-06-23T02:48:01.891Z,99434.66
2018-06-23T02:50:30.506Z,99433.62
2018-06-23T02:52:59.228Z,99433.76
2018-06-23T02:55:27.894Z,99440.97
2018-06-23T02:57:56.516Z,99442.52
2018-06-23T03:00:25.176Z,99445.64
2018-06-23T03:02:53.799Z,99445.77
2018-06-23T03:05:22.457Z,99452.18
2018-06-23T03:07:51.161Z,99451.86
2018-06-23T03:10:19.796Z,99453.53
2018-06-23T03:12:48.465Z,99453.19
2018-06-23T03:15:17.143Z,99452.86
2018-06-23T03:17:46.589Z,99463.91
2018-06-23T03:20:15.189Z,99471.66
2018-06-23T03:22:43.889Z,99469.73
2018-06-23T03:25:12.516Z,99478.73
2018-06-23T03:27:41.190Z,99479.05
2018-06-23T03:30:09.953Z,99492.32
2018-06-23T03:32:38.684Z,99479.30
2018-06-23T03:35:07.830Z,99489.31
2018-06-23T03:37:36.455Z,99486.06
2018-06-23T03:40:05.074Z,99485.09
2018-06-23T03:42:33.625Z,99491.75
2018-06-23T03:45:02.370Z,99490.56
2018-06-23T03:47:31.107Z,99496.77
2018-06-23T03:49:59.914Z,99497.80
2018-06-23T03:52:28.584Z,99500.25
2018-06-23T03:54:57.700Z,99509.84
2018-06-23T03:57:26.310Z,99519.22
2018-06-23T03:59:54.941Z,99508.36
2018-06-23T04:02:23.545Z,99510.52
2018-06-23T04:04:52.288Z,99519.56
2018-06-23T04:07:20.888Z,99524.84
2018-06-23T04:09:49.576Z,99522.89
2018-06-23T04:12:18.259Z,99523.85
2018-06-23T04:14:46.928Z,99526.17
2018-06-23T04:17:15.472Z,99525.17
2018-06-23T04:19:44.208Z,99528.61
2018-06-23T04:22:12.866Z,99530.83
2018-06-23T04:24:41.579Z,99538.42
2018-06-23T04:27:10.324Z,99533.13
2018-06-23T04:29:39.006Z,99540.23
2018-06-23T04:32:07.726Z,99544.48
2018-06-23T04:34:36.408Z,99545.30
2018-06-23T04:37:05.040Z,99548.48
2018-06-23T04:39:33.821Z,99543.41
2018-06-23T04:42:02.523Z,99552.05
2018-06-23T04:44:31.204Z,99548.66
2018-06-23T04:47:06.704Z,99546.98
2018-06-23T04:49:35.542Z,99553.67
2018-06-23T04:52:04.085Z,99557.33
2018-06-23T04:54:32.750Z,99558.81
2018-06-23T04:57:01.379Z,99561.80
2018-06-23T04:59:30.034Z,99555.61
2018-06-23T05:01:58.698Z,99557.63
2018-06-23T05:04:27.251Z,99567.19
2018-06-23T05:06:55.997Z,99568.13
2018-06-23T05:09:24.713Z,99566.95
2018-06-23T05:11:53.375Z,99566.02
2018-06-23T05:14:21.953Z,99561.11
2018-06-23T05:16:50.615Z,99572.89
2018-06-23T05:19:19.291Z,99571.22
2018-06-23T05:21:48.124Z,99581.46
2018-06-23T05:24:16.885Z,99582.30
2018-06-23T05:26:45.521Z,99589.58
2018-06-23T05:29:14.167Z,99585.88
2018-06-23T05:31:42.841Z,99595.75
2018-06-23T05:34:11.505Z,99604.95
2018-06-23T05:36:40.167Z,99612.09
2018-06-23T05:39:09.975Z,99606.47
2018-06-23T05:41:38.612Z,99615.12
2018-06-23T05:44:07.259Z,99622.09
2018-06-23T05:46:36.112Z,99624.39
2018-06-23T05:49:04.822Z,99627.63
2018-06-23T05:51:33.489Z,99631.95
2018-06-23T05:54:02.229Z,99631.95
2018-06-23T05:56:30.858Z,99630.70
2018-06-23T05:58:59.498Z,99629.00
2018-06-23T06:01:28.184Z,99636.59
2018-06-23T06:03:56.774Z,99638.02
2018-06-23T06:06:25.426Z,99641.27
2018-06-23T06:08:54.034Z,99643.53
2018-06-23T06:11:22.722Z,99650.89
2018-06-23T06:13:51.482Z,99653.19
2018-06-23T06:16:29.510Z,99651.58
2018-06-23T06:18:58.118Z,99658.34
2018-06-23T06:21:26.752Z,99658.58
2018-06-23T06:23:55.366Z,99663.09
2018-06-23T06:26:24.034Z,99665.25
2018-06-23T06:28:52.643Z,99670.33
2018-06-23T06:31:21.276Z,99674.88
2018-06-23T06:33:50.017Z,99678.02
2018-06-23T06:36:18.672Z,99680.91
2018-06-23T06:38:47.302Z,99681.02
2018-06-23T06:41:16.084Z,99686.53
2018-06-23T06:43:44.704Z,99683.32
2018-06-23T06:46:13.306Z,99689.19
2018-06-23T06:48:42.018Z,99692.75
2018-06-23T06:51:10.701Z,99709.39
2018-06-23T06:53:39.425Z,99715.91
2018-06-23T06:56:07.993Z,99710.67
2018-06-23T06:58:36.737Z,99711.27
2018-06-23T07:01:05.586Z,99719.22
2018-06-23T07:03:34.377Z,99726.20
2018-06-23T07:06:03.339Z,99723.13
2018-06-23T07:08:31.929Z,99729.86
2018-06-23T07:11:00.586Z,99737.23
2018-06-23T07:13:29.218Z,99733.87
2018-06-23T07:15:57.819Z,99737.88
2018-06-23T07:18:26.407Z,99736.33
2018-06-23T07:20:55.098Z,99741.72
2018-06-23T07:23:23.763Z,99737.33
2018-06-23T07:25:52.372Z,99746.53
2018-06-23T07:28:21.117Z,99746.14
2018-06-23T07:30:49.777Z,99750.94
2018-06-23T07:33:18.381Z,99749.26
2018-06-23T07:35:47.033Z,99746.66
2018-06-23T07:38:15.655Z,99749.50
2018-06-23T07:40:44.517Z,99615.42
2018-06-23T07:43:13.322Z,99758.82
2018-06-23T07:45:41.942Z,99759.89
2018-06-23T07:48:10.574Z,99763.46
2018-06-23T07:50:39.278Z,99770.81
2018-06-23T07:53:08.951Z,99768.02
2018-06-23T07:55:37.611Z,99769.16
2018-06-23T07:58:06.390Z,99773.84
2018-06-23T08:00:35.249Z,99764.33
2018-06-23T08:03:04.010Z,99767.14
2018-06-23T08:05:32.678Z,99766.02
2018-06-23T08:08:01.472Z,99781.51
2018-06-23T08:10:30.147Z,99788.84
2018-06-23T08:12:58.808Z,99789.00
2018-06-23T08:15:27.476Z,99794.66
2018-06-23T08:17:56.069Z,99791.98
2018-06-23T08:20:24.694Z,99784.83
2018-06-23T08:22:53.262Z,99790.67
2018-06-23T08:25:21.899Z,99791.00
2018-06-23T08:27:50.696Z,99795.50
2018-06-23T08:30:19.557Z,99798.48
2018-06-23T08:32:48.395Z,99798.16
2018-06-23T08:35:17.135Z,99803.31
2018-06-23T08:37:45.933Z,99806.46
2018-06-23T08:40:14.668Z,99806.99
2018-06-23T08:42:43.415Z,99810.32
2018-06-23T08:45:12.096Z,99813.81
2018-06-23T08:47:40.816Z,99806.80
2018-06-23T08:50:09.438Z,99813.61
2018-06-23T08:52:38.115Z,99810.87
2018-06-23T08:55:06.779Z,99811.30
2018-06-23T08:57:35.494Z,99824.73
2018-06-23T09:00:04.598Z,99816.19
2018-06-23T09:02:33.255Z,99823.17
2018-06-23T09:05:01.878Z,99827.28
2018-06-23T09:07:30.554Z,99819.30
2018-06-23T09:09:59.161Z,99832.46
2018-06-23T09:12:27.734Z,99831.47
2018-06-23T09:14:56.283Z,99827.45
2018-06-23T09:17:24.937Z,99835.76
2018-06-23T09:19:53.656Z,99833.80
2018-06-23T09:22:22.313Z,99834.61
2018-06-23T09:24:51.090Z,99835.94
2018-06-23T09:27:19.681Z,99837.91
2018-06-23T09:29:48.504Z,99842.58
2018-06-23T09:32:17.260Z,99843.89
2018-06-23T09:34:45.987Z,99856.15
2018-06-23T09:37:14.595Z,99867.30
2018-06-23T09:39:44.046Z,99872.48
2018-06-23T09:42:12.788Z,99882.96
2018-06-23T09:44:41.486Z,99879.27
2018-06-23T09:47:10.245Z,99888.23
2018-06-23T09:49:39.102Z,99901.92
2018-06-23T09:52:07.946Z,99901.08
2018-06-23T09:54:36.679Z,99898.93
2018-06-23T09:57:05.927Z,99898.60
2018-06-23T09:59:34.536Z,99898.30
2018-06-23T10:02:03.263Z,99905.63
2018-06-23T10:04:31.958Z,99907.82
2018-06-23T10:07:00.906Z,99901.68
2018-06-23T10:09:29.273Z,99906.48
2018-06-23T10:11:57.911Z,99906.08
2018-06-23T10:14:26.555Z,99903.56
2018-06-23T10:16:55.285Z,99908.42
2018-06-23T10:19:24.030Z,99907.61
2018-06-23T10:21:52.694Z,99913.17
2018-06-23T10:24:21.375Z,99929.97
2018-06-23T10:26:50.120Z,99955.03
2018-06-23T10:29:18.767Z,99970.83
2018-06-23T10:31:47.567Z,99971.81
2018-06-23T10:34:16.228Z,99970.95
2018-06-23T10:36:44.840Z,99986.59
2018-06-23T10:39:13.456Z,99982.05
2018-06-23T10:41:42.173Z,99982.59
2018-06-23T10:44:10.848Z,99985.97
2018-06-23T10:46:39.460Z,99985.50
2018-06-23T10:49:08.209Z,99990.39
2018-06-23T10:51:37.206Z,99995.20
2018-06-23T10:54:06.035Z,99990.72
2018-06-23T10:56:34.752Z,99994.19
2018-06-23T10:59:03.506Z,99998.63
2018-06-23T11:01:32.270Z,99996.45
2018-06-23T11:04:00.950Z,100000.88
2018-06-23T11:06:29.520Z,100008.58
2018-06-23T11:08:58.090Z,100018.08
2018-06-23T11:11:26.804Z,100013.58
2018-06-23T11:13:55.485Z,100015.97
2018-06-23T11:16:24.144Z,100020.30
2018-06-23T11:18:52.767Z,100022.27
2018-06-23T11:21:21.458Z,100020.45
2018-06-23T11:23:50.132Z,100023.17
2018-06-23T11:26:18.794Z,100025.19
2018-06-23T11:28:47.453Z,100022.44
2018-06-23T11:31:16.166Z,100025.64
2018-06-23T11:33:45.127Z,100034.90
2018-06-23T11:36:13.780Z,100041.97
2018-06-23T11:38:42.443Z,100043.31
2018-06-23T11:41:11.489Z,100047.88
2018-06-23T11:43:40.254Z,100050.53
2018-06-23T11:46:08.900Z,100055.47
2018-06-23T11:48:37.620Z,100052.89
2018-06-23T11:51:06.489Z,100055.64
2018-06-23T11:53:35.045Z,100060.55
2018-06-23T11:56:03.583Z,100063.72
2018-06-23T11:58:32.234Z,100071.16
2018-06-23T12:01:00.917Z,100078.83
2018-06-23T12:03:29.567Z,100077.09
2018-06-23T12:05:58.228Z,100069.78
2018-06-23T12:08:26.805Z,100071.92
2018-06-23T12:10:55.636Z,100084.30
2018-06-23T12:13:24.359Z,100086.81
2018-06-23T12:15:52.958Z,100096.05
2018-06-23T12:18:21.647Z,100097.55
2018-06-23T12:20:50.242Z,100100.20
2018-06-23T12:23:19.009Z,100101.34
2018-06-23T12:25:47.668Z,100101.76
2018-06-23T12:28:16.365Z,100118.03
2018-06-23T12:30:45.040Z,100120.20
2018-06-23T12:33:13.667Z,100120.30
2018-06-23T12:35:42.808Z,100118.01
2018-06-23T12:38:11.431Z,100132.45
2018-06-23T12:40:40.131Z,100134.56
2018-06-23T12:43:08.844Z,100151.50
2018-06-23T12:45:37.435Z,100145.13
2018-06-23T12:48:06.125Z,100154.79
2018-06-23T12:50:35.004Z,100159.91
2018-06-23T12:53:03.907Z,100160.60
2018-06-23T12:55:32.563Z,100159.23
2018-06-23T12:58:01.211Z,100168.91
2018-06-23T13:00:29.984Z,100170.36
2018-06-23T13:02:58.744Z,100171.13
2018-06-23T13:05:27.391Z,100172.91
2018-06-23T13:07:56.022Z,100170.47
2018-06-23T13:10:24.744Z,100172.77
2018-06-23T13:12:53.339Z,100168.47
2018-06-23T13:15:21.995Z,100174.77
2018-06-23T13:17:50.593Z,100168.31
2018-06-23T13:20:19.268Z,100167.84
2018-06-23T13:22:48.003Z,100169.50
2018-06-23T13:25:16.641Z,100169.18
2018-06-23T13:27:45.333Z,100168.27
2018-06-23T13:30:13.977Z,100161.58
2018-06-23T13:32:42.598Z,100162.33
2018-06-23T13:35:11.426Z,100165.03
2018-06-23T13:37:40.241Z,100160.94
2018-06-23T13:40:08.885Z,100165.94
2018-06-23T13:42:37.589Z,100162.47
2018-06-23T13:45:06.603Z,100167.42
2018-06-23T13:47:35.314Z,100168.85
2018-06-23T13:50:03.995Z,100165.63
2018-06-23T13:52:32.700Z,100165.14
2018-06-23T13:55:01.330Z,100168.44
2018-06-23T13:57:29.927Z,100168.17
2018-06-23T13:59:58.592Z,100166.37
2018-06-23T14:02:27.280Z,100173.20
2018-06-23T14:04:55.860Z,100172.03
2018-06-23T14:07:24.667Z,100172.45
2018-06-23T14:09:53.388Z,100175.30
2018-06-23T14:12:22.086Z,100163.95
2018-06-23T14:14:50.885Z,100158.97
2018-06-23T14:17:19.454Z,100166.97
2018-06-23T14:19:48.134Z,100168.29
2018-06-23T14:22:16.862Z,100173.02
2018-06-23T14:24:45.528Z,100171.02
2018-06-23T14:27:14.192Z,100175.92
2018-06-23T14:29:42.952Z,100174.25
2018-06-23T14:32:11.802Z,100172.90
2018-06-23T14:34:40.348Z,100187.76
2018-06-23T14:37:09.105Z,100200.75
2018-06-23T14:39:37.871Z,100208.91
2018-06-23T14:42:06.525Z,100220.80
2018-06-23T14:44:35.236Z,100227.53
2018-06-23T14:47:03.869Z,100228.31
2018-06-23T14:49:32.437Z,100228.26
2018-06-23T14:52:01.174Z,100237.09
2018-06-23T14:54:29.744Z,100243.02
2018-06-23T14:56:58.504Z,100233.71
2018-06-23T14:59:27.244Z,100232.14
2018-06-23T15:01:55.822Z,100238.14
2018-06-23T15:04:24.535Z,100248.08
2018-06-23T15:06:53.346Z,100241.86
2018-06-23T15:09:33.080Z,100234.30
2018-06-23T15:12:12.614Z,100237.53
2018-06-23T15:14:41.426Z,100231.28
2018-06-23T15:17:10.112Z,100238.69
2018-06-23T15:19:38.691Z,100241.48
2018-06-23T15:22:07.321Z,100243.94
2018-06-23T15:24:36.039Z,100237.81
2018-06-23T15:27:04.850Z,100254.53
2018-06-23T15:29:33.601Z,100267.97
2018-06-23T15:32:02.336Z,100265.66
2018-06-23T15:34:31.156Z,100258.74
2018-06-23T15:36:59.901Z,100262.94
2018-06-23T15:39:28.613Z,100258.66
2018-06-23T15:41:57.319Z,100272.25
2018-06-23T15:44:25.905Z,100273.80
2018-06-23T15:46:54.655Z,100273.21
2018-06-23T15:49:23.320Z,100273.73
2018-06-23T15:51:51.948Z,100269.19
2018-06-23T15:54:20.812Z,100280.13
2018-06-23T15:56:49.522Z,100278.91
2018-06-23T15:59:18.594Z,100289.87
2018-06-23T16:01:47.484Z,100283.04
2018-06-23T16:04:15.955Z,100288.11
2018-06-23T16:06:44.579Z,100285.18
2018-06-23T16:09:14.019Z,100294.01
2018-06-23T16:11:43.076Z,100297.83
2018-06-23T16:14:11.954Z,100297.42
2018-06-23T16:16:40.716Z,100303.58
2018-06-23T16:19:09.328Z,100302.05
2018-06-23T16:21:38.054Z,100299.88
2018-06-23T16:24:06.720Z,100300.79
2018-06-23T16:26:35.340Z,100305.37
2018-06-23T16:29:04.016Z,100317.95
2018-06-23T16:31:32.658Z,100314.25
2018-06-23T16:34:01.312Z,100317.47
2018-06-23T16:36:30.093Z,100323.42
2018-06-23T16:38:58.946Z,100324.13
2018-06-23T16:41:27.925Z,100324.75
2018-06-23T16:43:56.714Z,100328.60
2018-06-23T16:46:25.350Z,100317.64
2018-06-23T16:48:53.992Z,100327.09
2018-06-23T16:51:22.630Z,100325.86
2018-06-23T16:53:51.320Z,100327.28
2018-06-23T16:56:19.925Z,100329.25
2018-06-23T16:58:48.676Z,100340.45
2018-06-23T17:01:17.400Z,100339.80
2018-06-23T17:03:46.156Z,100335.17
2018-06-23T17:06:14.725Z,100341.78
2018-06-23T17:08:43.562Z,100342.13
2018-06-23T17:11:12.326Z,100353.03
2018-06-23T17:13:41.027Z,100355.73
2018-06-23T17:16:09.757Z,100358.39
2018-06-23T17:18:38.702Z,100361.19
2018-06-23T17:21:07.480Z,100363.61
2018-06-23T17:23:36.105Z,100371.33
2018-06-23T17:26:04.895Z,100362.72
2018-06-23T17:28:33.579Z,100375.30
2018-06-23T17:31:02.194Z,100376.66
2018-06-23T17:33:30.940Z,100382.08
2018-06-23T17:35:59.664Z,100389.99
2018-06-23T17:38:28.395Z,100385.95
2018-06-23T17:40:57.050Z,100398.87
2018-06-23T17:43:26.065Z,100401.84
2018-06-23T17:45:55.033Z,100405.03
2018-06-23T17:48:24.323Z,100412.31
2018-06-23T17:50:52.977Z,100417.01
2018-06-23T17:53:21.646Z,100427.97
2018-06-23T17:55:50.407Z,100429.97
2018-06-23T17:58:19.134Z,100437.83
2018-06-23T18:00:47.800Z,100440.44
2018-06-23T18:03:16.458Z,100438.48
2018-06-23T18:05:45.096Z,100434.84
2018-06-23T18:08:13.762Z,100438.29
2018-06-23T18:10:42.414Z,100437.41
2018-06-23T18:13:11.159Z,100441.67
2018-06-23T18:15:39.826Z,100445.03
2018-06-23T18:18:08.456Z,100445.88
2018-06-23T18:20:37.061Z,100456.59
2018-06-23T18:23:05.729Z,100453.27
2018-06-23T18:25:34.427Z,100457.44
2018-06-23T18:28:03.211Z,100457.80
2018-06-23T18:30:31.749Z,100456.33
2018-06-23T18:33:00.415Z,100465.28
2018-06-23T18:35:29.122Z,100461.78
2018-06-23T18:37:57.867Z,100462.49
2018-06-23T18:40:26.520Z,100464.72
2018-06-23T18:42:55.381Z,100471.59
2018-06-23T18:45:24.029Z,100470.39
2018-06-23T18:47:52.936Z,100476.61
2018-06-23T18:50:21.687Z,100478.78
2018-06-23T18:52:50.364Z,100482.41
2018-06-23T18:55:19.052Z,100486.22
2018-06-23T18:57:47.685Z,100488.95
2018-06-23T19:00:16.426Z,100495.59
2018-06-23T19:02:45.083Z,100492.84
2018-06-23T19:05:14.032Z,100505.79
2018-06-23T19:07:42.848Z,100506.54
2018-06-23T19:10:11.556Z,100507.41
2018-06-23T19:12:40.232Z,100502.64
2018-06-23T19:15:08.820Z,100509.91
2018-06-23T19:17:37.390Z,100515.09
2018-06-23T19:20:06.034Z,100511.86
2018-06-23T19:22:34.722Z,100526.38
2018-06-23T19:25:03.461Z,100513.32
2018-06-23T19:27:32.216Z,100524.92
2018-06-23T19:30:01.137Z,100520.59
2018-06-23T19:32:29.831Z,100527.10
2018-06-23T19:34:58.455Z,100533.81
2018-06-23T19:37:27.151Z,100541.30
2018-06-23T19:39:55.727Z,100534.20
2018-06-23T19:42:24.565Z,100542.83
2018-06-23T19:44:53.262Z,100541.21
2018-06-23T19:47:21.915Z,100547.86
2018-06-23T19:49:50.573Z,100548.47
2018-06-23T19:52:19.253Z,100552.59
2018-06-23T19:54:48.010Z,100552.59
2018-06-23T19:57:16.663Z,100550.19
2018-06-23T19:59:45.384Z,100553.69
2018-06-23T20:02:13.942Z,100552.52
2018-06-23T20:04:42.649Z,100554.47
2018-06-23T20:07:11.342Z,100550.25
2018-06-23T20:09:40.069Z,100551.88
2018-06-23T20:12:08.772Z,100558.28
2018-06-23T20:14:37.455Z,100561.30
2018-06-23T20:17:06.326Z,100564.08
2018-06-23T20:19:34.880Z,100574.71
2018-06-23T20:22:03.619Z,100577.62
2018-06-23T20:24:32.351Z,100578.63
2018-06-23T20:27:01.869Z,100583.48
2018-06-23T20:29:30.698Z,100597.61
2018-06-23T20:31:59.353Z,100593.62
2018-06-23T20:34:27.961Z,100594.52
2018-06-23T20:36:56.766Z,100594.57
2018-06-23T20:39:25.471Z,100599.04
2018-06-23T20:41:54.125Z,100606.05
2018-06-23T20:44:22.782Z,100610.94
2018-06-23T20:46:51.577Z,100610.85
2018-06-23T20:49:20.493Z,100615.09
2018-06-23T20:51:49.127Z,100613.52
2018-06-23T20:54:17.784Z,100613.41
2018-06-23T20:56:46.390Z,100620.69
2018-06-23T20:59:15.090Z,100630.63
2018-06-23T21:01:43.686Z,100631.72
2018-06-23T21:04:12.288Z,100634.73
2018-06-23T21:06:40.916Z,100642.14
2018-06-23T21:09:10.758Z,100636.47
2018-06-23T21:11:39.429Z,100647.08
2018-06-23T21:14:08.213Z,100642.53
2018-06-23T21:16:36.820Z,100646.16
2018-06-23T21:19:05.467Z,100653.80
2018-06-23T21:21:34.257Z,100652.70
2018-06-23T21:24:02.872Z,100653.59
2018-06-23T21:26:31.591Z,100668.91
2018-06-23T21:29:00.297Z,100676.17
2018-06-23T21:31:29.130Z,100678.31
2018-06-23T21:33:57.767Z,100672.55
2018-06-23T21:36:26.422Z,100679.30
2018-06-23T21:38:55.108Z,100685.57
2018-06-23T21:41:23.824Z,100686.92
2018-06-23T21:43:52.513Z,100696.11
2018-06-23T21:46:21.202Z,100699.48
2018-06-23T21:48:49.959Z,100704.06
2018-06-23T21:51:18.624Z,100703.72
2018-06-23T21:53:47.377Z,100715.30
2018-06-23T21:56:16.085Z,100714.84
2018-06-23T21:58:44.971Z,100720.64
2018-06-23T22:01:13.835Z,100723.75
2018-06-23T22:03:42.613Z,100720.05
2018-06-23T22:06:11.201Z,100730.89
2018-06-23T22:08:39.842Z,100726.66
2018-06-23T22:11:08.472Z,100727.48
2018-06-23T22:13:37.176Z,100737.61
2018-06-23T22:16:05.952Z,100740.96
2018-06-23T22:18:34.757Z,100752.51
2018-06-23T22:21:03.462Z,100757.18
2018-06-23T22:23:32.077Z,100757.28
2018-06-23T22:26:00.803Z,100764.16
2018-06-23T22:28:29.492Z,100756.38
2018-06-23T22:30:58.030Z,100765.75
2018-06-23T22:33:26.718Z,100759.34
2018-06-23T22:35:55.415Z,100761.86
2018-06-23T22:38:24.019Z,100768.19
2018-06-23T22:40:52.697Z,100770.77
2018-06-23T22:43:21.279Z,100771.48
2018-06-23T22:45:50.000Z,100767.02
2018-06-23T22:48:18.661Z,100768.43
2018-06-23T22:50:47.264Z,100770.91
2018-06-23T22:53:15.849Z,100775.44
2018-06-23T22:55:44.459Z,100785.14
2018-06-23T22:58:13.033Z,100785.11
2018-06-23T23:00:41.741Z,100789.62
2018-06-23T23:03:10.425Z,100790.67
2018-06-23T23:05:39.012Z,100792.23
2018-06-23T23:08:07.829Z,100789.99
2018-06-23T23:10:36.484Z,100783.35
2018-06-23T23:13:05.290Z,100782.84
2018-06-23T23:15:33.948Z,100788.33
2018-06-23T23:18:02.658Z,100782.73
2018-06-23T23:20:31.327Z,100788.72
2018-06-23T23:22:59.995Z,100794.11
2018-06-23T23:25:28.904Z,100790.95
2018-06-23T23:27:57.592Z,100800.77
2018-06-23T23:30:26.269Z,100797.23
2018-06-23T23:32:54.902Z,100791.35
2018-06-23T23:35:23.595Z,100786.77
2018-06-23T23:37:52.222Z,100790.73
2018-06-23T23:40:20.882Z,100790.75
2018-06-23T23:42:49.562Z,100792.36
2018-06-23T23:45:18.261Z,100795.00
2018-06-23T23:47:46.970Z,100793.73
2018-06-23T23:50:15.670Z,100791.88
2018-06-23T23:52:44.271Z,100797.16
2018-06-23T23:55:12.921Z,100795.95
2018-06-23T23:57:41.749Z,100807.14
